Time;durP1;ratioP1;P1;durP2;ratioP2;P2;SDS_P1;SDS_P2;PMS_P1;PMS_P2;Temp;Humidity;BMP_temperature;BMP_pressure;BME280_temperature;BME280_humidity;BME280_pressure;Samples;Min_cycle;Max_cycle;Signal;HPM_P1;HPM_P2
2021/12/08 00:03:38;;;;;;;115.05;91.93;;;22.00;44.00;;;;;;4829732;54;21111;-26
2021/12/08 00:08:45;;;;;;;110.72;90.20;;;22.00;44.00;;;;;;4842783;54;21083;-30
2021/12/08 00:13:49;;;;;;;112.30;90.18;;;22.00;44.00;;;;;;4794866;58;21020;-32
2021/12/08 00:18:50;;;;;;;113.60;91.78;;;22.00;44.00;;;;;;4795483;54;21008;-32
2021/12/08 00:23:51;;;;;;;115.12;89.70;;;22.00;43.90;;;;;;4819548;54;21000;-27
2021/12/08 00:28:51;;;;;;;112.00;90.18;;;21.90;43.80;;;;;;4798720;54;21016;-26
2021/12/08 00:33:52;;;;;;;110.70;89.85;;;21.90;43.80;;;;;;4816556;54;21979;-35
2021/12/08 00:38:53;;;;;;;110.45;89.80;;;21.90;43.80;;;;;;4808907;54;21052;-29
2021/12/08 00:43:54;;;;;;;113.30;90.20;;;21.90;43.70;;;;;;4799391;54;21526;-26
2021/12/08 00:48:55;;;;;;;109.03;89.43;;;21.90;44.40;;;;;;4831263;54;20999;-27
2021/12/08 00:53:56;;;;;;;109.65;88.93;;;21.90;43.80;;;;;;4803736;54;21482;-27
2021/12/08 00:58:58;;;;;;;109.50;88.57;;;21.90;43.80;;;;;;4801665;54;21052;-27
2021/12/08 01:03:59;;;;;;;111.60;87.35;;;21.90;43.70;;;;;;4818730;54;21039;-31
2021/12/08 01:09:00;;;;;;;108.10;86.65;;;21.90;43.70;;;;;;4798136;54;21557;-27
2021/12/08 01:14:01;;;;;;;108.10;86.55;;;21.90;43.60;;;;;;4799843;54;21054;-29
2021/12/08 01:19:02;;;;;;;109.20;86.45;;;21.90;43.70;;;;;;4798684;54;21350;-34
2021/12/08 01:24:04;;;;;;;113.05;87.32;;;21.90;43.60;;;;;;4824722;54;21059;-28
2021/12/08 01:29:07;;;;;;;108.50;85.62;;;21.90;43.60;;;;;;4824922;54;20999;-30
2021/12/08 01:34:12;;;;;;;109.03;85.50;;;21.90;43.60;;;;;;4794615;58;21550;-27
2021/12/08 01:39:13;;;;;;;107.82;84.43;;;21.90;43.50;;;;;;4796541;54;21509;-29
2021/12/08 01:49:36;;;;;;;104.30;82.30;;;21.90;43.50;;;;;;4833156;54;21526;-28
2021/12/08 01:54:37;;;;;;;104.82;82.32;;;21.80;43.40;;;;;;4794722;58;21024;-33
2021/12/08 01:59:38;;;;;;;105.50;83.60;;;21.90;43.50;;;;;;4808580;54;21007;-27
2021/12/08 02:04:38;;;;;;;102.45;81.97;;;21.80;43.40;;;;;;4823933;54;21542;-31
2021/12/08 02:09:40;;;;;;;101.57;81.80;;;21.80;43.40;;;;;;4795993;58;21004;-28
2021/12/08 02:14:41;;;;;;;101.28;80.30;;;21.80;43.30;;;;;;4809354;54;21529;-31
2021/12/08 02:19:41;;;;;;;100.55;78.20;;;21.80;43.30;;;;;;4845270;54;21011;-29
2021/12/08 02:24:42;;;;;;;102.65;80.82;;;21.90;43.40;;;;;;4795296;58;21047;-27
2021/12/08 02:29:54;;;;;;;104.57;81.50;;;21.80;43.20;;;;;;4824650;54;21043;-27
2021/12/08 02:50:53;;;;;;;97.97;77.97;;;21.80;43.10;;;;;;4817806;54;21127;-26
2021/12/08 02:55:54;;;;;;;100.10;78.97;;;21.80;43.10;;;;;;4808363;54;21007;-29
2021/12/08 03:00:59;;;;;;;96.95;76.12;;;21.80;43.00;;;;;;4796392;54;21119;-27
2021/12/08 03:06:01;;;;;;;94.03;74.32;;;21.80;43.10;;;;;;4811312;54;21008;-26
2021/12/08 03:11:02;;;;;;;95.40;76.20;;;21.80;43.00;;;;;;4802272;54;21039;-30
2021/12/08 03:16:04;;;;;;;95.95;75.47;;;21.80;43.00;;;;;;4794581;54;21020;-26
2021/12/08 03:21:07;;;;;;;93.95;74.60;;;21.80;43.60;;;;;;4862040;54;21106;-33
2021/12/08 03:26:08;;;;;;;95.28;75.50;;;21.80;43.00;;;;;;4806085;54;21592;-27
2021/12/08 03:31:14;;;;;;;92.30;73.53;;;21.80;43.00;;;;;;4806629;54;21059;-35
2021/12/08 03:36:15;;;;;;;91.22;73.75;;;21.80;42.90;;;;;;4794712;54;22248;-33
2021/12/08 03:41:16;;;;;;;92.40;70.75;;;21.80;42.90;;;;;;4797927;54;21067;-30
2021/12/08 03:46:18;;;;;;;93.43;71.70;;;21.80;42.90;;;;;;4798598;54;21478;-28
2021/12/08 03:51:19;;;;;;;90.18;72.03;;;21.80;42.80;;;;;;4797142;54;21526;-33
2021/12/08 03:56:20;;;;;;;88.75;70.35;;;21.70;42.80;;;;;;4814521;54;21090;-28
2021/12/08 04:01:22;;;;;;;90.62;70.78;;;21.80;42.80;;;;;;4795009;54;21066;-32
2021/12/08 04:06:39;;;;;;;90.95;70.40;;;21.80;42.80;;;;;;4823316;54;21083;-27
2021/12/08 04:11:40;;;;;;;87.20;67.82;;;21.70;42.80;;;;;;4797607;54;21540;-30
2021/12/08 04:16:48;;;;;;;85.38;66.87;;;21.70;42.70;;;;;;4794823;58;21020;-26
2021/12/08 04:21:52;;;;;;;86.12;66.45;;;21.70;42.70;;;;;;4839522;54;21040;-25
2021/12/08 04:27:06;;;;;;;83.22;65.40;;;21.70;42.60;;;;;;4798493;54;21087;-26
2021/12/08 04:32:09;;;;;;;84.80;66.47;;;21.70;42.60;;;;;;4818408;54;21063;-28
2021/12/08 04:37:22;;;;;;;85.80;66.15;;;21.80;42.60;;;;;;4806992;54;21087;-30
2021/12/08 04:42:38;;;;;;;85.97;66.05;;;21.70;42.50;;;;;;4804740;54;21494;-28
2021/12/08 04:48:04;;;;;;;82.32;62.90;;;21.70;42.50;;;;;;4797629;54;21474;-33
2021/12/08 04:54:01;;;;;;;82.28;64.82;;;21.70;42.50;;;;;;4802945;54;21506;-27
2021/12/08 05:04:35;;;;;;;82.65;63.55;;;21.70;42.60;;;;;;4814541;54;20306;-29
2021/12/08 05:09:37;;;;;;;78.75;61.40;;;21.70;42.60;;;;;;4795011;58;21570;-29
2021/12/08 05:14:53;;;;;;;78.60;62.15;;;21.70;42.60;;;;;;4853419;54;21019;-32
2021/12/08 05:19:58;;;;;;;79.60;62.60;;;21.70;42.60;;;;;;4808321;54;21107;-29
2021/12/08 05:25:01;;;;;;;77.97;61.25;;;21.70;42.60;;;;;;4802858;54;21008;-30
2021/12/08 05:30:11;;;;;;;76.53;61.00;;;21.70;42.60;;;;;;4795273;58;21085;-33
2021/12/08 05:35:19;;;;;;;79.07;63.15;;;21.70;42.60;;;;;;4841698;54;21150;-26
2021/12/08 05:40:46;;;;;;;78.97;60.67;;;21.70;42.70;;;;;;4807229;54;21052;-26
2021/12/08 05:45:48;;;;;;;75.40;60.47;;;21.70;42.70;;;;;;4816415;54;21016;-33
2021/12/08 05:50:57;;;;;;;77.57;60.75;;;21.70;42.80;;;;;;4831627;54;21132;-29
2021/12/08 05:55:58;;;;;;;77.62;61.37;;;21.70;42.90;;;;;;4810996;54;21134;-31
2021/12/08 06:01:17;;;;;;;72.20;57.75;;;21.70;43.00;;;;;;4850887;54;21168;-33
2021/12/08 06:06:23;;;;;;;78.03;59.85;;;21.70;42.90;;;;;;4795001;58;21482;-34
2021/12/08 06:11:28;;;;;;;75.27;58.40;;;21.60;42.90;;;;;;4795464;55;21019;-32
2021/12/08 06:16:31;;;;;;;73.45;57.62;;;21.60;42.90;;;;;;4798213;54;21095;-33
2021/12/08 06:21:33;;;;;;;71.85;57.88;;;21.60;42.90;;;;;;4810010;54;21067;-29
2021/12/08 06:26:33;;;;;;;73.10;57.88;;;21.60;42.90;;;;;;4796352;54;21092;-33
2021/12/08 06:31:37;;;;;;;74.05;58.78;;;21.70;43.00;;;;;;4805980;54;21099;-33
2021/12/08 06:36:43;;;;;;;79.18;59.83;;;21.60;42.90;;;;;;4794034;58;21593;-25
2021/12/08 06:41:51;;;;;;;73.12;56.15;;;21.60;42.80;;;;;;4817213;54;21012;-27
2021/12/08 06:46:53;;;;;;;72.20;57.38;;;21.60;42.80;;;;;;4811852;54;21490;-29
2021/12/08 06:51:58;;;;;;;71.55;56.80;;;21.60;42.90;;;;;;4809378;54;22164;-26
2021/12/08 06:57:16;;;;;;;71.85;56.15;;;21.60;42.70;;;;;;4802177;54;21047;-30
2021/12/08 07:02:35;;;;;;;74.57;58.70;;;21.60;42.80;;;;;;4801381;54;21446;-31
2021/12/08 07:07:38;;;;;;;74.07;56.42;;;21.60;42.80;;;;;;4819680;54;21579;-28
2021/12/08 07:12:44;;;;;;;73.55;57.13;;;21.60;42.70;;;;;;4820523;54;21060;-26
2021/12/08 07:17:50;;;;;;;80.82;59.88;;;21.60;42.70;;;;;;4812681;54;21070;-28
2021/12/08 07:22:53;;;;;;;73.70;57.92;;;21.60;42.70;;;;;;4805345;54;21012;-26
2021/12/08 07:27:54;;;;;;;79.15;59.55;;;21.60;42.60;;;;;;4794566;58;21073;-26
2021/12/08 07:32:56;;;;;;;80.15;60.55;;;21.60;42.60;;;;;;4828371;54;21039;-26
2021/12/08 07:38:00;;;;;;;80.95;61.20;;;21.60;42.70;;;;;;4834054;54;21475;-29
2021/12/08 07:43:06;;;;;;;77.43;60.00;;;21.60;42.60;;;;;;4794996;54;21000;-26
2021/12/08 07:48:10;;;;;;;74.28;58.85;;;21.60;42.60;;;;;;4806635;54;21008;-29
2021/12/08 07:53:14;;;;;;;83.03;63.95;;;21.60;42.70;;;;;;4803418;54;21084;-26
2021/12/08 07:58:18;;;;;;;81.10;63.03;;;21.60;42.60;;;;;;4817962;54;21053;-28
2021/12/08 08:03:21;;;;;;;78.45;61.85;;;21.60;42.60;;;;;;4795316;58;21036;-27
2021/12/08 08:08:25;;;;;;;83.45;65.65;;;21.60;42.60;;;;;;4830476;54;21004;-28
2021/12/08 08:13:27;;;;;;;85.87;65.55;;;21.60;42.50;;;;;;4819579;54;21529;-27
2021/12/08 08:18:29;;;;;;;87.07;66.50;;;21.80;42.50;;;;;;4821578;54;21055;-31
2021/12/08 08:23:31;;;;;;;88.93;69.35;;;22.10;42.20;;;;;;4800776;54;21486;-25
2021/12/08 08:28:33;;;;;;;88.80;67.80;;;22.30;41.90;;;;;;4802488;54;21478;-27
2021/12/08 08:33:35;;;;;;;91.43;69.72;;;22.50;41.80;;;;;;4812934;54;21170;-31
2021/12/08 08:39:08;;;;;;;88.72;68.70;;;22.70;41.40;;;;;;4801926;54;21608;-29
2021/12/08 08:44:27;;;;;;;99.13;72.45;;;22.80;42.00;;;;;;4823306;54;21060;-25
2021/12/08 08:49:31;;;;;;;94.10;70.22;;;22.90;41.90;;;;;;4825741;54;21008;-24
2021/12/08 08:54:36;;;;;;;95.75;73.00;;;23.10;42.00;;;;;;4800483;58;21079;-26
